Latest Weather Observations for Mount Crawford

IDS60801

Issued at 7:04 pm CDT Tuesday 3 March 2015 (issued every 30 minutes, with the page automatically refreshed every 10 minutes)

About weather observations | Map of weather stations | Latest weather observations for SA | Other Formats
Station Details ID: 023878 Name: MT CRAWFORD AWS Lat: -34.73 Lon: 138.93 Height: 525.0 m
Data from the previous 72 hours. | See also: Recent months at Mount Crawford
Date/Time
CDT
Temp
°C
App
Temp
°C
Dew
Point
Rel
Hum
%
Delta-T
°C
Wind Press
QNH
hPa
Press
MSL
hPa
Rain
since 9 am
mm
Dir
 
Spd
km/h
Gust
km/h
Spd
kts
Gust
kts
03/07:00pm 17.7 13.3 7.2 50 5.4 SE 20 30 11 16 1017.2 1015.6 0.0
03/06:30pm 18.9 14.6 8.0 49 5.7 SE 20 26 11 14 1016.7 1015.1 0.0
03/06:00pm 20.1 16.0 8.8 48 6.1 SE 20 30 11 16 1016.8 1015.2 0.0
03/05:30pm 21.7 17.7 8.9 44 7.0 SSE 20 28 11 15 1016.5 1014.9 0.0
03/05:00pm 23.6 21.0 9.2 40 8.0 SE 13 20 7 11 1016.4 1014.8 0.0
03/04:30pm 23.7 20.8 9.7 41 7.8 SE 15 22 8 12 1016.5 1014.9 0.0
03/04:00pm 24.6 22.0 9.3 38 8.5 ESE 13 22 7 12 1016.5 1014.9 0.0
03/03:30pm 24.9 22.8 6.6 31 9.7 SSE 7 11 4 6 1016.6 1015.0 0.0
03/03:00pm 24.3 21.1 7.0 33 9.2 W 13 20 7 11 1017.1 1015.4 0.0
03/02:30pm 23.3 20.4 8.2 38 8.2 SSE 13 20 7 11 1017.2 1015.6 0.0
03/02:00pm 23.6 21.4 7.7 36 8.6 N 9 17 5 9 1017.6 1016.0 0.0
03/01:30pm 22.7 20.2 8.0 39 7.9 ENE 11 19 6 10 1017.8 1016.2 0.0
03/01:00pm 22.4 19.6 8.5 41 7.5 E 13 20 7 11 1018.1 1016.5 0.0
03/12:30pm 21.5 19.6 9.1 45 6.8 ESE 9 17 5 9 1018.5 1016.9 0.0
03/12:00pm 21.0 19.3 9.9 49 6.1 SE 9 17 5 9 1019.2 1017.6 0.0
03/11:30am 19.5 17.6 9.1 51 5.6 ESE 9 15 5 8 1019.2 1017.6 0.0
03/11:00am 19.0 17.1 9.2 53 5.3 SE 9 15 5 8 1019.4 1017.8 0.0
03/10:30am 18.3 15.4 9.6 57 4.7 ESE 15 20 8 11 1019.0 1017.5 0.0
03/10:00am 17.5 14.4 10.4 63 3.9 ESE 17 22 9 12 1018.6 1017.0 0.0
03/09:30am 16.0 12.5 10.1 68 3.2 SE 19 24 10 13 1018.6 1017.0 0.0
03/09:00am 14.9 11.1 9.9 72 2.7 SE 20 26 11 14 1018.4 1016.8 0.0
03/08:30am 13.6 10.0 10.4 81 1.7 SE 20 28 11 15 1018.0 1016.4 0.0
03/08:00am 12.3 8.0 10.9 91 0.8 SSE 24 33 13 18 1017.7 1016.1 0.0
03/07:30am 11.8 7.7 10.2 90 0.8 SSE 22 28 12 15 1017.3 1015.7 0.0
03/07:00am 11.6 7.7 10.7 94 0.5 SSE 22 30 12 16 1016.7 1015.1 0.0
03/06:30am 11.6 7.4 11.0 96 0.3 SSE 24 32 13 17 1016.6 1015.0 0.0
03/06:00am 11.7 7.5 11.2 97 0.3 SSE 24 32 13 17 1016.3 1014.7 0.0
03/05:30am 11.9 7.5 11.6 98 0.2 SSE 26 35 14 19 1016.2 1014.6 0.0
03/05:00am 12.1 8.1 11.9 99 0.1 SE 24 32 13 17 1016.1 1014.5 0.0
03/04:30am 12.4 8.4 11.9 97 0.3 SSE 24 30 13 16 1016.0 1014.4 0.0
03/04:00am 12.6 8.7 12.1 97 0.3 SSE 24 33 13 18 1016.1 1014.5 0.0
03/03:30am 12.9 9.1 12.3 96 0.3 SE 24 30 13 16 1016.1 1014.5 0.0
03/03:00am 13.1 8.6 12.5 96 0.3 SSE 28 35 15 19 1016.2 1014.6 0.0
03/02:30am 13.4 9.6 12.5 94 0.5 SSE 24 32 13 17 1016.3 1014.7 0.0
03/02:00am 13.5 8.9 12.4 93 0.6 SSE 28 35 15 19 1016.2 1014.6 0.0
03/01:30am 14.3 10.7 12.9 91 0.8 SSE 24 32 13 17 1016.3 1014.7 0.0
03/01:00am 14.9 11.0 12.2 84 1.5 SSE 24 35 13 19 1016.6 1015.0 0.0
03/12:30am 15.6 12.1 10.8 73 2.6 SSE 20 28 11 15 1016.5 1014.9 0.0
03/12:00am 16.8 12.9 8.8 59 4.2 SSE 19 24 10 13 1016.5 1014.9 0.0
 
Date/Time
CDT
Temp
°C
App
Temp
°C
Dew
Point
Rel
Hum
%
Delta-T
°C
Wind Press
QNH
hPa
Press
MSL
hPa
Rain
since 9 am
mm
Dir
 
Spd
km/h
Gust
km/h
Spd
kts
Gust
kts
02/11:30pm 16.2 12.9 9.4 64 3.6 SSE 17 22 9 12 1016.7 1015.1 0.0
02/11:00pm 16.9 13.9 9.1 60 4.1 SSE 15 20 8 11 1017.1 1015.4 0.0
02/10:30pm 18.2 14.0 7.6 50 5.5 SSE 19 24 10 13 1016.8 1015.2 0.0
02/10:00pm 18.8 14.9 7.3 47 6.0 SSE 17 22 9 12 1016.7 1015.1 0.0
02/09:30pm 19.3 16.1 6.8 44 6.4 SSE 13 17 7 9 1016.7 1015.1 0.0
02/09:00pm 19.6 16.2 6.0 41 6.9 SSE 13 19 7 10 1016.4 1014.8 0.0
02/08:30pm 20.0 15.7 5.3 38 7.4 SSE 17 22 9 12 1016.0 1014.4 0.0
02/08:00pm 21.0 16.6 4.6 34 8.2 SSE 17 26 9 14 1015.4 1013.7 0.0
02/07:30pm 21.4 17.8 4.9 34 8.3 S 13 19 7 10 1015.4 1013.7 0.0
02/07:00pm 21.8 18.5 4.8 33 8.6 S 11 17 6 9 1015.4 1013.7 0.0
02/06:30pm 22.0 17.6 4.6 32 8.8 SSW 17 22 9 12 1014.8 1013.2 0.0
02/06:00pm 22.6 18.1 4.2 30 9.2 SSW 17 22 9 12 1014.4 1012.8 0.0
02/05:30pm 23.2 18.4 2.7 26 10.1 SSW 17 20 9 11 1013.9 1012.3 0.0
02/05:00pm 23.8 20.5 2.6 25 10.4 SE 9 13 5 7 1014.2 1012.6 0.0
02/04:30pm 23.6 20.8 3.0 26 10.2 S 7 11 4 6 1014.1 1012.5 0.0
02/04:00pm 23.7 20.0 2.5 25 10.4 W 11 17 6 9 1014.4 1012.8 0.0
02/03:30pm 23.6 20.8 3.0 26 10.2 N 7 13 4 7 1014.6 1013.0 0.0
02/03:00pm 23.6 20.0 3.0 26 10.2 NW 11 17 6 9 1014.5 1012.9 0.0
02/02:30pm 23.2 19.1 2.1 25 10.2 NW 13 20 7 11 1014.6 1013.0 0.0
02/02:00pm 22.7 18.3 2.8 27 9.7 NNW 15 24 8 13 1014.5 1012.9 0.0
02/01:30pm 24.7 21.3 3.9 26 10.5 N 11 22 6 12 1014.7 1013.1 0.0
02/01:00pm 22.8 18.7 4.3 30 9.3 NNE 15 28 8 15 1015.2 1013.5 0.0
02/12:30pm 21.7 17.2 4.3 32 8.7 NE 17 22 9 12 1015.6 1014.0 0.0
02/12:00pm 21.2 15.9 5.1 35 8.1 NE 22 33 12 18 1015.7 1014.1 0.0
02/11:30am 21.1 16.5 5.5 36 7.9 NE 19 26 10 14 1016.2 1014.6 0.0
02/11:00am 20.6 15.7 6.9 41 7.1 NE 22 30 12 16 1016.7 1015.1 0.0
02/10:30am 18.5 13.1 6.4 45 6.2 NE 24 30 13 16 1016.7 1015.1 0.0
02/10:00am 16.5 12.2 7.2 54 4.8 ENE 19 24 10 13 1017.1 1015.4 0.0
02/09:30am 15.7 11.3 7.5 58 4.2 ENE 20 30 11 16 1016.8 1015.2 0.0
02/09:00am 13.7 8.2 7.7 67 3.0 ENE 26 33 14 18 1016.3 1014.7 0.0
02/08:30am 13.0 7.9 7.5 69 2.8 ENE 24 33 13 18 1016.4 1014.8 0.0
02/08:00am 12.7 6.8 7.4 70 2.7 E 28 37 15 20 1016.5 1014.9 0.0
02/07:30am 12.4 6.5 7.5 72 2.4 E 28 35 15 19 1016.1 1014.5 0.0
02/07:00am 12.0 6.6 7.9 76 2.1 E 26 30 14 16 1016.0 1014.4 0.0
02/06:30am 12.1 7.1 8.0 76 2.1 E 24 32 13 17 1015.8 1014.2 0.0
02/06:00am 11.7 6.4 8.4 80 1.7 E 26 32 14 17 1015.4 1013.7 0.0
02/05:30am 11.2 5.6 8.9 86 1.2 ESE 28 35 15 19 1014.9 1013.3 0.0
02/05:00am 10.8 4.9 9.2 90 0.8 ESE 30 37 16 20 1014.8 1013.2 0.0
02/04:30am 10.6 4.8 9.5 93 0.6 ESE 30 35 16 19 1015.1 1013.4 0.0
02/04:00am 10.8 5.5 9.9 94 0.5 SE 28 39 15 21 1015.2 1013.5 0.0
02/03:30am 10.7 5.0 9.8 94 0.5 SE 30 39 16 21 1015.3 1013.6 0.0
02/03:00am 10.8 5.1 9.9 94 0.5 SE 30 37 16 20 1015.3 1013.6 0.0
02/02:30am 10.9 5.6 9.8 93 0.6 SE 28 37 15 20 1015.6 1014.0 0.0
02/02:00am 11.3 6.0 9.7 90 0.8 SE 28 39 15 21 1016.0 1014.4 0.0
02/01:30am 11.1 5.8 9.7 91 0.7 SE 28 37 15 20 1016.2 1014.6 0.0
02/01:00am 11.2 6.0 10.1 93 0.6 SE 28 39 15 21 1016.5 1014.9 0.0
02/12:30am 11.1 5.6 10.5 96 0.3 SSE 30 39 16 21 1016.6 1015.0 0.0
02/12:00am 11.3 5.4 10.5 95 0.4 SSE 32 41 17 22 1016.7 1015.1 0.0
 
Date/Time
CDT
Temp
°C
App
Temp
°C
Dew
Point
Rel
Hum
%
Delta-T
°C
Wind Press
QNH
hPa
Press
MSL
hPa
Rain
since 9 am
mm
Dir
 
Spd
km/h
Gust
km/h
Spd
kts
Gust
kts
01/11:30pm 11.3 5.4 10.5 95 0.4 SSE 32 43 17 23 1016.7 1015.1 0.0
01/11:00pm 11.3 5.4 10.5 95 0.4 SE 32 43 17 23 1016.8 1015.2 0.0
01/10:30pm 11.5 6.0 10.4 93 0.6 SE 30 39 16 21 1017.2 1015.6 0.0
01/10:00pm 11.9 6.3 10.3 90 0.8 SSE 30 39 16 21 1017.4 1015.8 0.0
01/09:30pm 12.2 7.0 10.3 88 1.0 SSE 28 37 15 20 1017.3 1015.7 0.0
01/09:00pm 12.7 7.5 10.1 84 1.4 SSE 28 41 15 22 1016.9 1015.3 0.0
01/08:30pm 13.5 8.5 9.4 76 2.1 SE 26 39 14 21 1016.2 1014.6 0.0
01/08:00pm 14.4 9.2 9.0 70 2.8 SE 26 37 14 20 1015.8 1014.2 0.0
01/07:30pm 15.6 10.4 8.8 64 3.6 SE 26 35 14 19 1015.9 1014.3 0.0
01/07:00pm 17.0 12.6 8.9 59 4.3 SE 22 28 12 15 1016.3 1014.7 0.0
01/06:30pm 17.9 13.7 8.2 53 5.1 SE 20 32 11 17 1016.1 1014.5 0.0
01/06:00pm 18.8 14.1 7.6 48 5.9 SE 22 33 12 18 1016.2 1014.6 0.0
01/05:30pm 19.5 15.1 7.6 46 6.2 SE 20 33 11 18 1015.9 1014.3 0.0
01/05:00pm 19.6 14.7 7.0 44 6.5 SSE 22 33 12 18 1016.1 1014.5 0.0
01/04:30pm 20.1 15.6 7.1 43 6.8 SE 20 32 11 17 1016.0 1014.4 0.0
01/04:00pm 20.1 15.0 7.5 44 6.6 SSE 24 35 13 19 1015.7 1014.1 0.0
01/03:30pm 20.2 15.1 7.6 44 6.6 SSE 24 37 13 20 1016.0 1014.4 0.0
01/03:00pm 20.3 15.3 6.6 41 7.1 SE 22 39 12 21 1016.3 1014.7 0.0
01/02:30pm 19.9 14.3 5.5 39 7.3 S 24 33 13 18 1016.5 1014.9 0.0
01/02:00pm 20.0 14.7 4.9 37 7.6 SSE 22 37 12 20 1016.5 1014.9 0.0
01/01:30pm 19.6 14.2 6.3 42 6.8 SSE 24 35 13 19 1016.7 1015.1 0.0
01/01:00pm 18.5 13.6 6.7 46 6.1 SSE 22 35 12 19 1017.1 1015.4 0.0
01/12:30pm 18.3 13.1 7.1 48 5.8 S 24 37 13 20 1017.2 1015.6 0.0
01/12:00pm 18.3 14.1 8.3 52 5.3 SSE 20 33 11 18 1017.4 1015.8 0.0
01/11:30am 18.1 13.6 8.4 53 5.1 SSW 22 35 12 19 1017.4 1015.8 0.0
01/11:00am 15.9 10.9 7.9 59 4.1 SE 24 39 13 21 1017.3 1015.7 0.0
01/10:30am 15.9 11.2 7.7 58 4.2 S 22 32 12 17 1016.9 1015.3 0.0
01/10:00am 14.8 9.3 7.4 61 3.8 SSE 26 35 14 19 1016.7 1014.5 0.0
01/09:30am 14.7 10.0 7.7 63 3.6 SSE 22 35 12 19 1016.4 1014.2 0.0
01/09:00am 13.4 9.0 7.2 66 3.1 S 20 41 11 22 1015.8 1013.5 0.6
01/08:30am 12.7 8.9 7.6 71 2.6 S 17 28 9 15 1015.5 1013.2 0.6
01/08:00am 11.9 9.6 9.1 83 1.4 S 11 15 6 8 1015.5 1013.2 0.6
01/07:30am 11.4 9.4 8.6 83 1.4 SW 9 17 5 9 1014.8 1012.6 0.6
01/07:00am 11.2 8.7 8.1 81 1.6 SW 11 17 6 9 1014.3 1012.1 0.6
01/06:30am 11.1 8.9 7.8 80 1.6 SSW 9 15 5 8 1013.9 1011.6 0.6
01/06:00am 11.0 8.0 7.5 79 1.7 SSW 13 19 7 10 1013.6 1011.3 0.6
01/05:30am 11.3 8.8 8.0 80 1.7 SSW 11 20 6 11 1013.4 1011.1 0.6
01/05:00am 11.8 8.0 9.2 84 1.3 SSW 19 30 10 16 1013.1 1010.8 0.6
01/04:30am 11.6 7.9 9.5 87 1.1 SSW 19 28 10 15 1012.6 1010.4 0.6
01/04:00am 12.2 9.0 9.8 85 1.3 SW 17 28 9 15 1012.3 1010.0 0.6
01/03:30am 12.1 8.8 10.8 92 0.7 SSW 19 26 10 14 1012.0 1009.7 0.6
01/03:00am 12.4 8.8 10.6 89 1.0 SW 20 26 11 14 1011.8 1009.5 0.6
01/02:30am 12.4 8.9 10.8 90 0.9 SSW 20 32 11 17 1011.8 1009.5 0.6
01/02:00am 12.7 9.2 10.9 89 1.0 SSW 20 28 11 15 1011.9 1009.6 0.6
01/01:30am 12.7 9.3 11.3 91 0.8 SSW 20 32 11 17 1012.0 1009.7 0.6
01/01:00am 12.9 8.7 11.1 89 1.0 SW 24 35 13 19 1012.1 1009.8 0.6
01/12:30am 12.9 9.6 10.8 87 1.1 SW 19 28 10 15 1012.1 1009.8 0.6
01/12:00am 13.1 9.5 10.6 85 1.3 SW 20 32 11 17 1012.0 1009.7 0.6
 
Date/Time
CDT
Temp
°C
App
Temp
°C
Dew
Point
Rel
Hum
%
Delta-T
°C
Wind Press
QNH
hPa
Press
MSL
hPa
Rain
since 9 am
mm
Dir
 
Spd
km/h
Gust
km/h
Spd
kts
Gust
kts
28/11:30pm 13.4 10.6 11.3 87 1.1 SSW 17 26 9 14 1011.9 1009.6 0.6
28/11:00pm 13.5 9.7 11.2 86 1.2 SSW 22 32 12 17 1011.9 1009.6 0.6
28/10:30pm 14.1 8.8 11.1 82 1.6 SSW 30 39 16 21 1011.6 1009.3 0.6
28/10:00pm 15.2 11.8 13.6 90 0.9 SSW 24 32 13 17 1011.4 1009.1 0.6
28/09:30pm 16.3 14.1 15.0 92 0.8 SSW 20 28 11 15 1011.1 1008.8 0.6
28/09:00pm 16.4 14.3 15.1 92 0.8 S 20 26 11 14 1010.2 1007.9 0.6
28/08:30pm 16.9 13.9 14.9 88 1.2 SSW 24 32 13 17 1009.7 1007.4 0.6
28/08:00pm 19.2 16.8 15.3 78 2.3 SSW 22 33 12 18 1008.8 1006.5 0.6
28/07:30pm 20.7 19.5 15.0 70 3.4 WSW 15 24 8 13 1008.3 1006.0 0.6

Other Formats:

Comma delimited format used in spreadsheet applications
http://www.bom.gov.au/fwo/IDS60801/IDS60801.94678.axf

JavaScript Object Notation format (JSON) in row-major order
http://www.bom.gov.au/fwo/IDS60801/IDS60801.94678.json